Time;durP1;ratioP1;P1;durP2;ratioP2;P2;SDS_P1;SDS_P2;PMS_P1;PMS_P2;Temp;Humidity;BMP_temperature;BMP_pressure;BME280_temperature;BME280_humidity;BME280_pressure;Samples;Min_cycle;Max_cycle;Signal;HPM_P1;HPM_P2
2024/02/18 00:01:48;;;;;;;8.10;6.50;;;9.80;99.90;;;;;;5029980;28;20437;-71
2024/02/18 00:04:35;;;;;;;15.43;7.73;;;9.70;99.90;;;;;;5028975;28;20492;-71
2024/02/18 00:07:21;;;;;;;8.27;6.70;;;9.70;99.90;;;;;;5028066;28;20566;-71
2024/02/18 00:10:07;;;;;;;11.43;7.47;;;9.60;99.90;;;;;;5038000;28;20470;-71
2024/02/18 00:12:53;;;;;;;12.40;8.90;;;9.50;99.90;;;;;;5031269;28;20479;-71
2024/02/18 00:15:38;;;;;;;11.20;7.67;;;9.50;99.90;;;;;;5025546;28;20441;-71
2024/02/18 00:18:24;;;;;;;13.33;7.97;;;9.50;99.90;;;;;;5030508;28;20509;-70
2024/02/18 00:21:16;;;;;;;9.80;7.87;;;9.40;99.90;;;;;;5027644;28;20456;-71
2024/02/18 00:24:02;;;;;;;15.07;7.60;;;9.40;99.90;;;;;;5032654;28;20491;-71
2024/02/18 00:26:50;;;;;;;11.63;7.00;;;9.30;99.90;;;;;;5028526;28;20420;-71
2024/02/18 00:29:36;;;;;;;7.87;6.93;;;9.30;99.90;;;;;;5030846;28;20805;-71
2024/02/18 00:32:22;;;;;;;9.63;7.07;;;9.30;99.90;;;;;;5029728;28;20895;-71
2024/02/18 00:35:07;;;;;;;16.13;7.70;;;9.20;99.90;;;;;;5029172;28;20589;-70
2024/02/18 00:37:54;;;;;;;10.23;7.30;;;9.10;99.90;;;;;;5035892;28;20418;-70
2024/02/18 00:40:40;;;;;;;14.50;7.80;;;9.10;99.90;;;;;;5025199;28;20808;-71
2024/02/18 00:43:26;;;;;;;9.43;6.80;;;9.10;99.90;;;;;;5031336;28;21959;-71
2024/02/18 00:46:12;;;;;;;12.67;7.13;;;9.00;99.90;;;;;;5033716;28;20804;-71
2024/02/18 00:48:57;;;;;;;11.30;8.40;;;9.00;99.90;;;;;;5026037;28;20442;-71
2024/02/18 00:51:43;;;;;;;13.10;8.30;;;8.90;99.90;;;;;;5031429;28;20477;-71
2024/02/18 00:54:30;;;;;;;9.60;7.93;;;8.80;99.90;;;;;;5034038;28;20462;-71
2024/02/18 00:57:16;;;;;;;12.90;7.53;;;8.80;99.90;;;;;;5031394;28;20421;-71
2024/02/18 01:00:02;;;;;;;10.33;7.53;;;8.90;99.90;;;;;;5025286;28;20454;-71
2024/02/18 01:02:48;;;;;;;10.80;8.90;;;8.90;99.90;;;;;;5031172;28;20451;-71
2024/02/18 01:05:33;;;;;;;14.20;8.57;;;8.90;99.90;;;;;;5031149;28;20455;-71
2024/02/18 01:08:19;;;;;;;9.90;8.33;;;8.80;99.90;;;;;;5030710;28;20427;-71
2024/02/18 01:11:06;;;;;;;13.60;8.80;;;8.60;99.90;;;;;;5033366;28;20511;-71
2024/02/18 01:13:52;;;;;;;12.60;7.90;;;8.60;99.90;;;;;;5029888;28;20444;-71
2024/02/18 01:16:39;;;;;;;17.23;8.30;;;8.60;99.90;;;;;;5034567;28;20779;-71
2024/02/18 01:19:25;;;;;;;9.07;7.97;;;8.50;99.90;;;;;;5033451;28;20943;-71
2024/02/18 01:22:10;;;;;;;13.10;8.67;;;8.50;99.90;;;;;;5034029;28;20775;-71
2024/02/18 01:24:56;;;;;;;14.20;8.93;;;8.60;99.90;;;;;;5021465;28;20942;-71
2024/02/18 01:27:44;;;;;;;12.90;8.30;;;8.60;99.90;;;;;;5027978;28;20428;-71
2024/02/18 01:30:30;;;;;;;10.87;8.40;;;8.70;99.90;;;;;;5025724;28;20482;-71
2024/02/18 01:33:16;;;;;;;13.23;8.80;;;8.70;99.90;;;;;;5030232;28;20478;-72
2024/02/18 01:36:01;;;;;;;14.50;9.10;;;8.60;99.90;;;;;;5034287;28;20446;-71
2024/02/18 01:38:47;;;;;;;14.00;8.13;;;8.70;99.90;;;;;;5023010;28;20551;-71
2024/02/18 01:41:33;;;;;;;14.40;8.63;;;8.60;99.90;;;;;;5034278;28;20564;-71
2024/02/18 01:44:20;;;;;;;21.23;8.27;;;8.50;99.90;;;;;;5031085;28;20490;-71
2024/02/18 01:47:06;;;;;;;17.63;10.23;;;8.50;99.90;;;;;;5025576;28;20496;-71
2024/02/18 01:49:52;;;;;;;11.93;9.57;;;8.50;99.90;;;;;;5031175;28;20462;-71
2024/02/18 01:52:40;;;;;;;16.90;10.70;;;8.40;99.90;;;;;;5030895;28;20422;-71
2024/02/18 01:55:26;;;;;;;14.57;9.37;;;8.40;99.90;;;;;;5033185;28;20515;-71
2024/02/18 01:58:12;;;;;;;21.17;9.60;;;8.50;99.90;;;;;;5035153;28;20960;-71
2024/02/18 02:00:59;;;;;;;12.50;8.73;;;8.50;99.90;;;;;;5026719;28;20451;-71
2024/02/18 02:03:46;;;;;;;13.27;9.10;;;8.60;99.90;;;;;;5034021;28;20468;-71
2024/02/18 02:06:32;;;;;;;13.53;8.90;;;8.50;99.90;;;;;;5027483;28;20441;-71
2024/02/18 02:09:18;;;;;;;14.07;8.60;;;8.40;99.90;;;;;;5029331;28;20505;-71
2024/02/18 02:12:04;;;;;;;12.77;7.83;;;8.40;99.90;;;;;;5029378;28;20483;-71
2024/02/18 02:14:50;;;;;;;14.17;8.33;;;8.50;99.90;;;;;;5029497;28;20968;-71
2024/02/18 02:17:38;;;;;;;12.40;8.70;;;8.30;99.90;;;;;;5028500;28;20479;-70
2024/02/18 02:20:23;;;;;;;9.90;7.10;;;8.30;99.90;;;;;;5028798;28;20587;-70
2024/02/18 02:23:11;;;;;;;13.17;8.03;;;8.30;99.90;;;;;;5027868;28;20478;-71
2024/02/18 02:25:57;;;;;;;14.50;8.50;;;8.30;99.90;;;;;;5030956;28;20560;-71
2024/02/18 02:28:47;;;;;;;14.03;8.20;;;8.20;99.90;;;;;;5025861;28;20621;-71
2024/02/18 02:31:34;;;;;;;9.90;7.50;;;8.20;99.90;;;;;;5026631;28;20482;-71
2024/02/18 02:34:22;;;;;;;13.23;8.20;;;8.30;99.90;;;;;;5031499;28;20483;-71
2024/02/18 02:37:08;;;;;;;11.10;7.67;;;8.20;99.90;;;;;;5024879;28;20471;-71
2024/02/18 02:39:53;;;;;;;10.50;8.60;;;8.30;99.90;;;;;;5028963;28;20422;-71
2024/02/18 02:42:39;;;;;;;14.57;8.87;;;8.40;99.90;;;;;;5033957;28;20462;-71
2024/02/18 02:45:25;;;;;;;9.17;7.47;;;8.40;99.90;;;;;;5025296;28;20455;-71
2024/02/18 02:48:12;;;;;;;10.30;7.57;;;8.40;99.90;;;;;;5027490;28;20455;-71
2024/02/18 02:50:57;;;;;;;14.30;7.90;;;8.50;99.90;;;;;;5026017;28;20554;-71
2024/02/18 02:53:43;;;;;;;11.07;7.00;;;8.50;99.90;;;;;;5024921;28;20482;-71
2024/02/18 02:56:29;;;;;;;20.10;8.53;;;8.50;99.90;;;;;;5026080;28;20437;-71
2024/02/18 02:59:14;;;;;;;14.53;8.20;;;8.50;99.90;;;;;;5023572;28;20509;-71
2024/02/18 03:02:00;;;;;;;12.07;7.90;;;8.60;99.90;;;;;;5024470;28;20586;-71
2024/02/18 03:04:47;;;;;;;10.40;8.50;;;8.70;99.90;;;;;;5031866;28;20526;-71
2024/02/18 03:07:33;;;;;;;12.03;8.00;;;8.70;99.90;;;;;;5026311;28;20552;-71
2024/02/18 03:10:19;;;;;;;10.47;8.33;;;8.70;99.90;;;;;;5025331;28;20596;-71
2024/02/18 03:13:05;;;;;;;11.20;7.90;;;8.70;99.90;;;;;;5031517;28;20589;-71
2024/02/18 03:15:51;;;;;;;8.83;7.13;;;8.60;99.90;;;;;;5030217;28;20533;-71
2024/02/18 03:18:36;;;;;;;13.17;8.23;;;8.50;99.90;;;;;;5029979;28;20450;-71
2024/02/18 03:21:25;;;;;;;14.73;8.57;;;8.40;99.90;;;;;;5033317;28;20936;-71
2024/02/18 03:24:11;;;;;;;13.37;8.90;;;8.50;99.90;;;;;;5035890;28;20482;-71
2024/02/18 03:26:57;;;;;;;11.33;8.30;;;8.40;99.90;;;;;;5033341;28;20508;-71
2024/02/18 03:29:43;;;;;;;11.07;7.60;;;8.40;99.90;;;;;;5036392;28;20627;-71
2024/02/18 03:32:28;;;;;;;13.33;8.03;;;8.30;99.90;;;;;;5033908;28;20599;-71
2024/02/18 03:35:15;;;;;;;16.77;8.57;;;8.30;99.90;;;;;;5036468;28;20552;-71
2024/02/18 03:38:02;;;;;;;15.50;9.00;;;8.20;99.90;;;;;;5032714;28;20505;-71
2024/02/18 03:40:48;;;;;;;11.20;8.00;;;8.10;99.90;;;;;;5035696;28;20454;-71
2024/02/18 03:43:34;;;;;;;11.60;7.63;;;8.10;99.90;;;;;;5033568;28;20484;-71
2024/02/18 03:46:20;;;;;;;11.90;9.00;;;8.10;99.90;;;;;;5030894;28;20496;-71
2024/02/18 03:49:05;;;;;;;13.60;10.00;;;8.00;99.90;;;;;;5037282;28;20446;-72
2024/02/18 03:51:51;;;;;;;14.10;9.20;;;7.90;99.90;;;;;;5031395;28;20498;-71
2024/02/18 03:54:38;;;;;;;11.20;8.40;;;7.80;99.90;;;;;;5031393;28;20483;-71
2024/02/18 03:57:24;;;;;;;11.90;8.20;;;7.90;99.90;;;;;;5034110;28;20826;-71
2024/02/18 04:00:11;;;;;;;12.07;8.77;;;7.90;99.90;;;;;;5032717;28;20951;-71
2024/02/18 04:02:57;;;;;;;14.17;7.77;;;7.80;99.90;;;;;;5031406;28;21072;-71
2024/02/18 04:05:43;;;;;;;12.10;7.73;;;7.80;99.90;;;;;;5030728;28;21170;-71
2024/02/18 04:08:28;;;;;;;8.67;7.27;;;7.80;99.90;;;;;;5032922;28;20462;-71
2024/02/18 04:11:15;;;;;;;10.70;7.67;;;7.70;99.90;;;;;;5030443;28;20473;-71
2024/02/18 04:14:01;;;;;;;13.57;8.17;;;7.70;99.90;;;;;;5031624;28;20478;-72
2024/02/18 04:16:47;;;;;;;15.80;8.80;;;7.60;99.90;;;;;;5023665;28;20451;-71
2024/02/18 04:19:32;;;;;;;12.80;7.40;;;7.60;99.90;;;;;;5029841;28;20545;-71
2024/02/18 04:22:18;;;;;;;8.77;7.00;;;7.60;99.90;;;;;;5032067;28;20445;-71
2024/02/18 04:25:04;;;;;;;17.90;7.13;;;7.60;99.90;;;;;;5030070;28;20466;-71
2024/02/18 04:27:51;;;;;;;9.53;7.80;;;7.40;99.90;;;;;;5032965;28;20472;-71
2024/02/18 04:30:37;;;;;;;7.53;6.83;;;7.40;99.90;;;;;;5032875;28;20491;-71
2024/02/18 04:33:22;;;;;;;16.50;8.13;;;7.40;99.90;;;;;;5031293;28;20498;-71
2024/02/18 04:36:09;;;;;;;13.10;8.10;;;7.40;99.90;;;;;;5026517;28;20454;-71
2024/02/18 04:38:55;;;;;;;9.00;7.90;;;7.30;99.90;;;;;;5032059;28;20456;-71
2024/02/18 04:41:40;;;;;;;7.60;6.77;;;7.20;99.90;;;;;;5035106;28;20493;-71
2024/02/18 04:44:28;;;;;;;11.50;8.30;;;7.30;99.90;;;;;;5033790;28;20553;-71
2024/02/18 04:47:13;;;;;;;8.17;6.87;;;7.30;99.90;;;;;;5033892;28;20452;-71
2024/02/18 04:50:03;;;;;;;8.67;6.93;;;7.30;99.90;;;;;;5032172;28;20425;-71
2024/02/18 04:52:49;;;;;;;8.90;7.47;;;7.20;99.90;;;;;;5029284;28;20481;-71
2024/02/18 04:55:35;;;;;;;11.97;7.83;;;7.10;99.90;;;;;;5031138;28;20454;-71
2024/02/18 04:58:21;;;;;;;7.53;6.43;;;7.00;99.90;;;;;;5035006;28;20436;-71
2024/02/18 05:01:10;;;;;;;9.07;6.90;;;6.90;99.90;;;;;;5036372;28;20561;-71
2024/02/18 05:03:56;;;;;;;9.13;7.40;;;6.80;99.90;;;;;;5028311;28;20471;-71
2024/02/18 05:06:46;;;;;;;9.70;6.90;;;6.80;99.90;;;;;;5037023;28;20439;-71
2024/02/18 05:09:32;;;;;;;9.50;7.50;;;6.90;99.90;;;;;;5028773;28;20487;-71
2024/02/18 05:12:18;;;;;;;9.80;7.33;;;7.00;99.90;;;;;;5032401;28;20521;-71
2024/02/18 05:15:04;;;;;;;13.90;7.87;;;7.00;99.90;;;;;;5031998;28;20450;-71
2024/02/18 05:17:52;;;;;;;11.83;7.90;;;6.90;99.90;;;;;;5034461;28;20983;-71
2024/02/18 05:20:37;;;;;;;12.13;8.83;;;7.00;99.90;;;;;;5031828;28;20989;-71
2024/02/18 05:23:23;;;;;;;12.67;9.00;;;6.90;99.90;;;;;;5032846;28;20462;-71
2024/02/18 05:26:10;;;;;;;17.53;8.90;;;6.80;99.90;;;;;;5032552;28;20452;-71
2024/02/18 05:28:56;;;;;;;12.00;6.27;;;6.70;99.90;;;;;;5028191;28;20625;-71
2024/02/18 05:31:41;;;;;;;24.63;7.37;;;6.60;99.90;;;;;;5027780;28;20474;-71
2024/02/18 05:34:28;;;;;;;10.87;8.40;;;6.50;99.90;;;;;;5041688;28;20627;-71
2024/02/18 05:37:14;;;;;;;8.57;7.67;;;6.60;99.90;;;;;;5030731;28;20461;-71
2024/02/18 05:39:59;;;;;;;11.53;8.20;;;6.70;99.90;;;;;;5033317;28;20447;-71
2024/02/18 05:42:45;;;;;;;14.27;9.10;;;6.80;99.90;;;;;;5025852;28;20474;-71
2024/02/18 05:45:32;;;;;;;9.90;7.63;;;6.70;99.90;;;;;;5028693;28;20593;-71
2024/02/18 05:48:17;;;;;;;11.00;7.50;;;6.80;99.90;;;;;;5032998;28;20454;-71
2024/02/18 05:51:05;;;;;;;14.30;8.13;;;6.80;99.90;;;;;;5027621;28;20420;-71
2024/02/18 05:53:51;;;;;;;38.23;10.77;;;6.90;99.90;;;;;;5030235;28;20478;-71
2024/02/18 05:56:36;;;;;;;18.50;10.23;;;7.00;99.90;;;;;;5032990;28;20434;-71
2024/02/18 05:59:22;;;;;;;24.93;12.07;;;6.90;99.90;;;;;;5032277;28;20416;-71
2024/02/18 06:02:08;;;;;;;22.63;12.48;;;6.90;99.90;;;;;;5030723;28;20456;-71
2024/02/18 06:04:54;;;;;;;33.67;11.80;;;6.90;99.90;;;;;;5031109;28;20671;-71
2024/02/18 06:07:41;;;;;;;37.80;11.80;;;6.90;99.90;;;;;;5029299;28;20924;-71
2024/02/18 06:10:26;;;;;;;30.60;12.37;;;6.80;99.90;;;;;;5028214;28;20466;-71
2024/02/18 06:13:12;;;;;;;31.07;13.93;;;6.70;99.90;;;;;;5030606;28;20576;-71
2024/02/18 06:15:58;;;;;;;21.57;11.70;;;6.60;99.90;;;;;;5029918;28;20441;-71
2024/02/18 06:18:43;;;;;;;106.50;12.80;;;6.60;99.90;;;;;;5031652;28;20462;-71
2024/02/18 06:21:29;;;;;;;34.20;11.70;;;6.60;99.90;;;;;;5029132;28;20475;-71
2024/02/18 06:24:16;;;;;;;17.43;12.10;;;6.50;99.90;;;;;;5031856;28;20823;-71
2024/02/18 06:27:02;;;;;;;26.43;10.20;;;6.70;99.90;;;;;;5033430;28;20536;-71
2024/02/18 06:29:48;;;;;;;30.37;11.70;;;6.80;99.90;;;;;;5033619;28;20989;-71
2024/02/18 06:32:33;;;;;;;40.67;11.03;;;6.80;99.90;;;;;;5033889;28;20436;-71
2024/02/18 06:35:19;;;;;;;17.30;12.40;;;6.90;99.90;;;;;;5031485;28;20442;-71
2024/02/18 06:38:05;;;;;;;16.93;11.00;;;6.80;99.90;;;;;;5036577;28;20449;-71
2024/02/18 06:40:52;;;;;;;56.50;11.10;;;6.80;99.90;;;;;;5029634;28;20972;-71
2024/02/18 06:43:38;;;;;;;18.13;11.07;;;6.80;99.90;;;;;;5032897;28;20688;-71
2024/02/18 06:46:23;;;;;;;13.47;10.57;;;6.80;99.90;;;;;;5024924;28;20439;-71
2024/02/18 06:49:09;;;;;;;15.98;9.85;;;6.70;99.90;;;;;;5032316;28;20444;-71
2024/02/18 06:51:55;;;;;;;12.33;9.03;;;6.80;99.90;;;;;;5034720;28;20734;-71
2024/02/18 06:54:41;;;;;;;16.00;9.77;;;6.80;99.90;;;;;;5038541;28;20474;-71
2024/02/18 06:57:28;;;;;;;13.30;10.20;;;6.90;99.90;;;;;;5038025;28;20551;-71
2024/02/18 07:00:16;;;;;;;21.23;10.47;;;6.90;99.90;;;;;;5031301;28;20918;-71
2024/02/18 07:03:03;;;;;;;23.20;11.67;;;6.90;99.90;;;;;;5036124;28;20547;-71
2024/02/18 07:05:49;;;;;;;80.47;12.43;;;7.00;99.90;;;;;;5035806;28;20461;-71
2024/02/18 07:08:35;;;;;;;26.13;10.40;;;7.10;99.90;;;;;;5036261;28;20540;-71
2024/02/18 07:11:22;;;;;;;25.53;9.50;;;7.10;99.90;;;;;;5037176;28;21945;-71
2024/02/18 07:14:10;;;;;;;44.97;10.50;;;7.10;99.90;;;;;;5036111;28;20502;-71
2024/02/18 07:16:55;;;;;;;20.33;11.40;;;7.10;99.90;;;;;;5032138;28;20457;-71
2024/02/18 07:19:42;;;;;;;51.60;11.47;;;7.10;99.90;;;;;;5034347;28;20441;-71
2024/02/18 07:22:27;;;;;;;35.43;10.20;;;7.20;99.90;;;;;;5038334;28;20604;-71
2024/02/18 07:25:13;;;;;;;22.47;10.30;;;7.20;99.90;;;;;;5033791;28;20446;-71
2024/02/18 07:27:59;;;;;;;23.13;9.83;;;7.30;99.90;;;;;;5036535;28;20417;-71
2024/02/18 07:30:46;;;;;;;11.23;9.40;;;7.40;99.90;;;;;;5030489;28;20466;-71
2024/02/18 07:33:31;;;;;;;15.33;10.20;;;7.30;99.90;;;;;;5055366;23;20488;-75
2024/02/18 07:36:18;;;;;;;14.63;9.97;;;7.40;99.90;;;;;;4995132;28;20476;-75
2024/02/18 07:39:03;;;;;;;25.30;11.70;;;7.40;99.90;;;;;;4998564;28;20496;-75
2024/02/18 07:41:49;;;;;;;20.50;9.37;;;7.50;99.90;;;;;;5000683;28;20448;-75
2024/02/18 07:44:35;;;;;;;11.80;8.97;;;7.40;99.90;;;;;;4996177;28;21030;-75
2024/02/18 07:47:22;;;;;;;10.40;9.13;;;7.40;99.90;;;;;;4994702;28;20456;-76
2024/02/18 07:50:10;;;;;;;22.53;9.37;;;7.40;99.90;;;;;;4998403;28;20966;-75
2024/02/18 07:52:55;;;;;;;43.40;9.77;;;7.40;99.90;;;;;;4995574;28;20697;-75
2024/02/18 07:55:41;;;;;;;11.93;9.30;;;7.50;99.90;;;;;;4997582;28;20427;-75
2024/02/18 07:58:27;;;;;;;10.80;9.00;;;7.50;99.90;;;;;;4998135;28;20796;-74
2024/02/18 08:01:12;;;;;;;11.13;8.90;;;7.50;99.90;;;;;;4995122;28;20456;-75
2024/02/18 08:03:59;;;;;;;12.57;10.47;;;7.50;99.90;;;;;;4993005;28;20473;-74
2024/02/18 08:06:45;;;;;;;15.53;10.60;;;7.60;99.90;;;;;;4996207;28;20458;-75
2024/02/18 08:09:30;;;;;;;15.90;13.37;;;7.60;99.90;;;;;;4992701;28;20456;-75
2024/02/18 08:12:16;;;;;;;14.13;11.20;;;7.60;99.90;;;;;;4997610;28;20985;-75
2024/02/18 08:15:02;;;;;;;10.10;9.00;;;7.70;99.90;;;;;;4994115;28;20469;-75
2024/02/18 08:17:48;;;;;;;10.90;9.70;;;7.80;99.90;;;;;;4992675;28;20457;-75
2024/02/18 08:20:35;;;;;;;12.43;10.00;;;7.80;99.90;;;;;;4994365;28;20544;-75
2024/02/18 08:23:20;;;;;;;9.70;8.70;;;8.00;99.90;;;;;;4995023;28;20456;-75
2024/02/18 08:26:07;;;;;;;11.40;8.93;;;8.10;99.90;;;;;;4992972;28;20459;-73
2024/02/18 08:28:54;;;;;;;10.43;9.30;;;8.20;99.90;;;;;;4993668;28;20457;-76
2024/02/18 08:31:39;;;;;;;11.00;9.40;;;8.20;99.90;;;;;;4991308;28;20482;-75
2024/02/18 08:34:26;;;;;;;12.03;10.83;;;8.30;99.90;;;;;;4990080;28;20583;-75
2024/02/18 08:37:13;;;;;;;12.10;10.20;;;8.50;99.90;;;;;;4996204;28;20430;-75
2024/02/18 08:39:58;;;;;;;11.80;8.90;;;8.60;99.90;;;;;;4989261;28;20424;-75
2024/02/18 08:42:44;;;;;;;11.70;9.17;;;8.70;99.90;;;;;;4990416;28;20457;-75
2024/02/18 08:45:30;;;;;;;10.67;8.53;;;8.80;99.90;;;;;;4993819;28;20562;-73
2024/02/18 08:48:15;;;;;;;9.50;7.97;;;8.90;99.90;;;;;;4990591;28;20465;-75
2024/02/18 08:51:01;;;;;;;10.63;8.40;;;9.00;99.90;;;;;;4989630;28;20453;-74
2024/02/18 08:53:48;;;;;;;9.67;8.13;;;9.10;99.90;;;;;;4990428;28;20478;-76
2024/02/18 08:56:34;;;;;;;13.90;8.87;;;9.20;99.90;;;;;;4996761;28;20452;-75
2024/02/18 08:59:20;;;;;;;8.47;7.57;;;9.20;99.90;;;;;;4991798;28;20475;-75
2024/02/18 09:02:06;;;;;;;9.30;7.57;;;9.30;99.90;;;;;;4985844;28;20522;-75
2024/02/18 09:04:51;;;;;;;9.20;8.03;;;9.40;99.90;;;;;;4984543;28;20532;-74
2024/02/18 09:07:37;;;;;;;10.40;8.03;;;9.40;99.90;;;;;;4989017;28;20460;-75
2024/02/18 09:10:24;;;;;;;9.87;8.40;;;9.40;99.90;;;;;;4987494;28;20456;-74
2024/02/18 09:13:10;;;;;;;11.03;7.43;;;9.60;99.90;;;;;;4990260;28;20454;-75
2024/02/18 09:15:56;;;;;;;11.30;7.57;;;9.70;99.90;;;;;;4985205;28;20532;-75
2024/02/18 09:18:41;;;;;;;9.80;7.80;;;9.70;99.90;;;;;;4986535;28;20495;-73
2024/02/18 09:21:27;;;;;;;10.23;7.90;;;9.70;99.90;;;;;;4985864;28;20467;-74
2024/02/18 09:24:12;;;;;;;10.60;8.10;;;9.80;99.90;;;;;;4991824;28;20476;-74
2024/02/18 09:27:00;;;;;;;9.57;7.87;;;9.80;99.90;;;;;;4995584;28;20471;-76
2024/02/18 09:29:45;;;;;;;8.17;6.80;;;9.90;99.90;;;;;;4991909;28;20453;-75
2024/02/18 09:32:31;;;;;;;13.40;7.10;;;10.00;99.90;;;;;;4986910;28;20511;-74
2024/02/18 09:35:17;;;;;;;10.43;6.33;;;10.10;99.90;;;;;;4983823;28;20484;-75
2024/02/18 09:38:08;;;;;;;12.43;6.73;;;10.10;99.90;;;;;;4983816;28;21053;-75
2024/02/18 09:40:54;;;;;;;9.63;6.03;;;10.20;99.90;;;;;;4989756;28;20512;-75
2024/02/18 09:43:43;;;;;;;8.93;5.87;;;10.20;99.90;;;;;;4991582;28;20480;-75
2024/02/18 09:46:31;;;;;;;12.73;5.77;;;10.30;99.90;;;;;;4994982;28;20719;-75
2024/02/18 09:49:19;;;;;;;8.20;5.37;;;10.40;99.90;;;;;;4991100;28;20470;-74
2024/02/18 09:52:06;;;;;;;8.10;5.20;;;10.50;99.90;;;;;;4986895;28;20498;-75
2024/02/18 09:54:53;;;;;;;10.57;6.63;;;10.50;99.90;;;;;;4993058;28;21018;-74
2024/02/18 09:57:39;;;;;;;10.10;5.90;;;10.60;99.90;;;;;;4996795;28;20444;-75
2024/02/18 10:00:26;;;;;;;10.37;5.80;;;10.70;99.90;;;;;;4988466;28;20423;-75
2024/02/18 10:03:12;;;;;;;7.10;5.90;;;10.70;99.90;;;;;;4992289;28;20792;-74
2024/02/18 10:05:58;;;;;;;8.07;4.83;;;10.80;99.90;;;;;;4992565;28;20797;-76
2024/02/18 10:08:51;;;;;;;7.10;4.77;;;10.90;99.90;;;;;;4994398;28;20469;-73
2024/02/18 10:11:37;;;;;;;9.67;4.70;;;11.00;99.90;;;;;;4993465;28;20589;-75
2024/02/18 10:14:24;;;;;;;7.30;4.40;;;11.10;99.90;;;;;;4991030;28;21029;-75
2024/02/18 10:17:10;;;;;;;8.47;5.00;;;11.20;99.90;;;;;;4991332;28;20432;-73
2024/02/18 10:19:56;;;;;;;8.50;3.67;;;11.20;99.90;;;;;;4993195;28;20448;-76
2024/02/18 10:22:42;;;;;;;6.10;3.70;;;11.20;99.90;;;;;;4995443;28;20457;-75
2024/02/18 10:25:28;;;;;;;7.90;3.80;;;11.30;99.90;;;;;;4994320;28;20831;-75
2024/02/18 10:28:16;;;;;;;6.50;3.47;;;11.30;99.90;;;;;;4987408;28;21037;-75
2024/02/18 10:31:03;;;;;;;11.20;3.70;;;11.30;99.90;;;;;;4991497;28;20423;-75
2024/02/18 10:33:50;;;;;;;8.37;3.40;;;11.30;99.90;;;;;;4984721;28;20640;-75
2024/02/18 10:36:37;;;;;;;6.50;3.40;;;11.30;99.90;;;;;;4985645;28;20465;-77
2024/02/18 10:39:27;;;;;;;7.87;3.83;;;11.30;99.90;;;;;;4992582;28;20503;-75
2024/02/18 10:42:15;;;;;;;4.20;3.07;;;11.30;99.90;;;;;;4990719;28;20966;-77
2024/02/18 10:45:03;;;;;;;7.50;3.50;;;11.40;99.90;;;;;;4991615;28;20575;-74
2024/02/18 10:47:53;;;;;;;7.57;3.47;;;11.40;99.90;;;;;;4991563;28;20434;-74
2024/02/18 10:50:44;;;;;;;5.07;3.10;;;11.40;99.90;;;;;;4990759;28;20432;-75
2024/02/18 10:53:35;;;;;;;5.07;3.50;;;11.50;99.90;;;;;;4993985;28;20571;-74
2024/02/18 10:56:23;;;;;;;4.90;3.60;;;11.50;99.90;;;;;;4987516;28;20465;-74
2024/02/18 10:59:16;;;;;;;6.27;3.47;;;11.50;99.90;;;;;;4989938;28;20967;-77
2024/02/18 11:02:10;;;;;;;8.13;3.80;;;11.40;99.90;;;;;;4986423;28;20481;-76
2024/02/18 11:04:57;;;;;;;7.10;4.27;;;11.40;99.90;;;;;;4992549;28;20455;-77
2024/02/18 11:07:45;;;;;;;8.50;6.13;;;11.50;99.90;;;;;;4990948;28;20597;-77
2024/02/18 11:10:31;;;;;;;8.70;4.10;;;11.50;99.90;;;;;;4993980;28;20427;-77
2024/02/18 11:13:19;;;;;;;9.43;4.70;;;11.40;99.90;;;;;;4993013;28;20476;-76
2024/02/18 11:16:05;;;;;;;10.70;4.30;;;11.40;99.90;;;;;;4989083;28;20460;-77
2024/02/18 11:18:51;;;;;;;5.97;4.57;;;11.40;99.90;;;;;;4983156;28;20474;-77
2024/02/18 11:21:37;;;;;;;7.73;4.63;;;11.40;99.90;;;;;;4984740;28;20439;-77
2024/02/18 11:24:25;;;;;;;11.87;5.43;;;11.30;99.90;;;;;;4984936;28;20557;-74
2024/02/18 11:27:11;;;;;;;7.60;5.53;;;11.40;99.90;;;;;;4983558;28;20544;-76
2024/02/18 11:29:57;;;;;;;5.23;4.40;;;11.30;99.90;;;;;;4992888;28;20434;-77
2024/02/18 11:32:43;;;;;;;7.30;4.10;;;11.30;99.90;;;;;;4991780;28;20572;-77
2024/02/18 11:35:29;;;;;;;6.97;3.70;;;11.40;99.90;;;;;;4993428;28;20479;-76
2024/02/18 11:38:14;;;;;;;5.90;3.50;;;11.40;99.90;;;;;;4992741;28;20459;-76
2024/02/18 11:41:01;;;;;;;4.90;3.63;;;11.50;99.90;;;;;;4992555;28;21025;-77
2024/02/18 11:43:57;;;;;;;5.87;3.67;;;11.50;99.90;;;;;;4994165;28;20601;-77
2024/02/18 11:46:44;;;;;;;7.40;3.13;;;11.50;99.90;;;;;;4995800;28;20406;-76
2024/02/18 11:49:31;;;;;;;4.87;3.37;;;11.50;99.90;;;;;;4999110;28;20466;-77
2024/02/18 11:52:17;;;;;;;6.03;3.33;;;11.60;99.90;;;;;;4997738;28;21066;-77
2024/02/18 11:55:11;;;;;;;5.70;3.33;;;11.60;99.90;;;;;;5000007;28;20455;-76
2024/02/18 11:57:59;;;;;;;5.40;3.40;;;11.70;99.90;;;;;;4998773;28;20547;-77
2024/02/18 12:00:45;;;;;;;6.37;4.07;;;11.70;99.90;;;;;;4997742;28;20413;-75
2024/02/18 12:03:31;;;;;;;7.60;4.70;;;11.70;99.90;;;;;;4997944;28;20439;-77
2024/02/18 12:06:17;;;;;;;9.07;3.83;;;11.60;99.90;;;;;;4997754;28;20456;-76
2024/02/18 12:09:12;;;;;;;4.73;3.33;;;11.60;99.90;;;;;;4994341;28;20448;-77
2024/02/18 12:11:58;;;;;;;7.40;3.60;;;11.50;99.90;;;;;;4994295;28;20530;-77
2024/02/18 12:14:53;;;;;;;4.50;3.03;;;11.50;99.90;;;;;;4989297;28;20473;-74
2024/02/18 12:17:38;;;;;;;6.63;3.83;;;11.50;99.90;;;;;;4994212;28;20465;-77
2024/02/18 12:20:24;;;;;;;5.13;3.33;;;11.50;99.90;;;;;;4988189;28;20475;-77
2024/02/18 12:23:09;;;;;;;4.90;3.13;;;11.60;99.90;;;;;;4989686;28;20481;-76
2024/02/18 12:25:55;;;;;;;10.13;3.83;;;11.60;99.90;;;;;;4986656;28;20519;-77
2024/02/18 12:28:41;;;;;;;6.73;3.30;;;11.50;99.90;;;;;;4990817;28;20555;-76
2024/02/18 12:31:29;;;;;;;5.50;3.57;;;11.60;99.90;;;;;;4987195;28;20440;-77
2024/02/18 12:34:19;;;;;;;7.10;3.50;;;11.60;99.90;;;;;;4986777;28;20484;-77
2024/02/18 12:37:05;;;;;;;7.17;4.37;;;11.60;99.90;;;;;;4989715;28;20547;-76
2024/02/18 12:39:51;;;;;;;10.60;4.57;;;11.60;99.90;;;;;;4989203;28;20438;-76
2024/02/18 12:42:36;;;;;;;9.00;3.73;;;11.60;99.90;;;;;;4986932;28;20462;-76
2024/02/18 12:45:23;;;;;;;6.07;4.10;;;11.70;99.90;;;;;;4985902;28;20481;-76
2024/02/18 12:48:10;;;;;;;6.10;3.90;;;11.60;99.90;;;;;;4989746;28;20610;-77
2024/02/18 12:51:10;;;;;;;5.57;4.13;;;11.70;99.90;;;;;;4987866;28;20436;-77
2024/02/18 12:53:57;;;;;;;9.30;4.37;;;11.70;99.90;;;;;;4991304;28;20500;-77
2024/02/18 12:56:43;;;;;;;6.20;4.43;;;11.50;99.90;;;;;;4991935;28;20423;-75
2024/02/18 12:59:29;;;;;;;8.30;4.20;;;11.60;99.90;;;;;;4994536;28;20473;-76
2024/02/18 13:02:15;;;;;;;8.80;4.47;;;11.60;99.90;;;;;;4985832;28;20544;-76
2024/02/18 13:05:03;;;;;;;8.63;4.90;;;11.60;99.90;;;;;;4984837;28;20477;-75
2024/02/18 13:07:54;;;;;;;6.27;4.83;;;11.60;99.90;;;;;;4986934;28;21038;-76
2024/02/18 13:10:40;;;;;;;9.63;5.23;;;11.60;99.90;;;;;;4983179;28;20424;-77
2024/02/18 13:13:26;;;;;;;8.33;5.00;;;11.70;99.90;;;;;;4983199;28;20506;-77
2024/02/18 13:16:12;;;;;;;8.53;4.93;;;11.70;99.90;;;;;;4988134;28;20800;-77
2024/02/18 13:18:58;;;;;;;9.03;4.80;;;11.70;99.90;;;;;;4986063;28;20960;-76
2024/02/18 13:21:45;;;;;;;6.10;5.00;;;11.70;99.90;;;;;;4992767;28;20461;-77
2024/02/18 13:24:30;;;;;;;10.03;5.40;;;11.70;99.90;;;;;;4983386;28;21234;-77
2024/02/18 13:27:16;;;;;;;7.30;4.70;;;11.70;99.90;;;;;;4986136;28;20440;-77
2024/02/18 13:30:02;;;;;;;7.57;4.77;;;11.80;99.90;;;;;;4991373;28;20432;-78
2024/02/18 13:32:48;;;;;;;6.90;5.10;;;11.70;99.90;;;;;;4987989;28;20584;-76
2024/02/18 13:35:34;;;;;;;6.40;4.23;;;11.70;99.90;;;;;;4983009;28;20994;-77
2024/02/18 13:38:20;;;;;;;8.70;6.07;;;11.60;99.90;;;;;;4985676;28;20445;-77
2024/02/18 13:41:06;;;;;;;6.90;5.20;;;11.60;99.90;;;;;;4983744;28;20504;-77
2024/02/18 13:43:52;;;;;;;7.20;4.37;;;11.60;99.90;;;;;;4982048;28;20452;-76
2024/02/18 13:46:40;;;;;;;10.13;5.30;;;11.70;99.90;;;;;;4986386;28;20448;-76
2024/02/18 13:49:26;;;;;;;11.03;4.70;;;11.60;99.90;;;;;;4988720;28;20439;-77
2024/02/18 13:52:11;;;;;;;6.53;4.67;;;11.60;99.90;;;;;;4985201;28;20794;-76
2024/02/18 13:54:59;;;;;;;11.60;5.13;;;11.70;99.90;;;;;;4995884;28;20492;-77
2024/02/18 13:57:44;;;;;;;8.13;4.40;;;11.70;99.90;;;;;;4987994;28;20475;-76
2024/02/18 14:00:30;;;;;;;8.63;5.10;;;11.70;99.90;;;;;;5000912;28;20415;-76
2024/02/18 14:03:15;;;;;;;6.70;4.80;;;11.70;99.90;;;;;;4988929;28;20466;-76
2024/02/18 14:06:01;;;;;;;8.60;5.07;;;11.70;99.90;;;;;;4980368;28;20500;-76
2024/02/18 14:08:47;;;;;;;7.90;5.53;;;11.70;99.90;;;;;;4983882;28;20802;-75
2024/02/18 14:11:34;;;;;;;11.83;5.40;;;11.70;99.90;;;;;;4984117;28;20941;-76
2024/02/18 14:14:19;;;;;;;8.70;4.90;;;11.70;99.90;;;;;;4983712;28;20527;-77
2024/02/18 14:17:05;;;;;;;9.03;4.73;;;11.70;99.90;;;;;;4982453;28;20600;-76
2024/02/18 14:19:51;;;;;;;9.80;5.10;;;11.70;99.90;;;;;;4982129;28;20828;-77
2024/02/18 14:22:37;;;;;;;6.87;4.57;;;11.80;99.90;;;;;;4986898;28;21024;-77
2024/02/18 14:25:23;;;;;;;7.83;5.20;;;11.80;99.90;;;;;;4990385;28;20477;-77